sensor_id;sensor_type;location;lat;lon;timestamp;pressure;altitude;pressure_sealevel;temperature;humidity
15050;BME280;7622;42.724;23.250;2024-03-08T00:02:04;94632.03;;;5.59;100.00
15050;BME280;7622;42.724;23.250;2024-03-08T00:04:30;94637.78;;;5.85;100.00
15050;BME280;7622;42.724;23.250;2024-03-08T00:06:58;94639.03;;;5.68;100.00
15050;BME280;7622;42.724;23.250;2024-03-08T00:09:25;94634.81;;;5.56;100.00
15050;BME280;7622;42.724;23.250;2024-03-08T00:11:52;94636.22;;;5.60;100.00
15050;BME280;7622;42.724;23.250;2024-03-08T00:14:19;94638.94;;;5.70;100.00
15050;BME280;7622;42.724;23.250;2024-03-08T00:16:47;94632.03;;;5.81;100.00
15050;BME280;7622;42.724;23.250;2024-03-08T00:19:13;94638.72;;;5.73;100.00
15050;BME280;7622;42.724;23.250;2024-03-08T00:21:40;94641.16;;;5.74;100.00
15050;BME280;7622;42.724;23.250;2024-03-08T00:24:08;94634.25;;;5.64;100.00
15050;BME280;7622;42.724;23.250;2024-03-08T00:26:35;94601.41;;;5.32;100.00
15050;BME280;7622;42.724;23.250;2024-03-08T00:29:02;94632.47;;;5.53;100.00
15050;BME280;7622;42.724;23.250;2024-03-08T00:31:29;94636.19;;;5.49;100.00
15050;BME280;7622;42.724;23.250;2024-03-08T00:33:57;94634.81;;;5.45;100.00
15050;BME280;7622;42.724;23.250;2024-03-08T00:36:26;94598.44;;;5.26;100.00
15050;BME280;7622;42.724;23.250;2024-03-08T00:38:57;94617.47;;;5.47;100.00
15050;BME280;7622;42.724;23.250;2024-03-08T00:41:30;94628.38;;;5.50;100.00
15050;BME280;7622;42.724;23.250;2024-03-08T00:43:57;94635.47;;;5.47;100.00
15050;BME280;7622;42.724;23.250;2024-03-08T00:46:24;94626.25;;;5.44;100.00
15050;BME280;7622;42.724;23.250;2024-03-08T00:48:51;94620.00;;;5.36;100.00
15050;BME280;7622;42.724;23.250;2024-03-08T00:51:17;94626.81;;;5.37;100.00
15050;BME280;7622;42.724;23.250;2024-03-08T00:53:44;94621.19;;;5.32;100.00
15050;BME280;7622;42.724;23.250;2024-03-08T00:56:11;94617.97;;;5.17;100.00
15050;BME280;7622;42.724;23.250;2024-03-08T00:58:39;94575.91;;;4.94;100.00
15050;BME280;7622;42.724;23.250;2024-03-08T01:01:05;94611.75;;;5.08;100.00
15050;BME280;7622;42.724;23.250;2024-03-08T01:03:32;94610.88;;;5.32;100.00
15050;BME280;7622;42.724;23.250;2024-03-08T01:05:59;94607.59;;;5.30;100.00
15050;BME280;7622;42.724;23.250;2024-03-08T01:08:27;94610.06;;;5.31;100.00
15050;BME280;7622;42.724;23.250;2024-03-08T01:10:54;94500.28;;;4.84;100.00
15050;BME280;7622;42.724;23.250;2024-03-08T01:13:20;94615.34;;;5.41;100.00
15050;BME280;7622;42.724;23.250;2024-03-08T01:15:49;94607.03;;;5.37;100.00
15050;BME280;7622;42.724;23.250;2024-03-08T01:18:15;94605.28;;;5.38;100.00
15050;BME280;7622;42.724;23.250;2024-03-08T01:20:42;94596.72;;;5.37;100.00
15050;BME280;7622;42.724;23.250;2024-03-08T01:23:10;94602.34;;;5.31;100.00
15050;BME280;7622;42.724;23.250;2024-03-08T01:25:40;94599.63;;;5.33;100.00
15050;BME280;7622;42.724;23.250;2024-03-08T01:28:09;94551.59;;;5.09;100.00
15050;BME280;7622;42.724;23.250;2024-03-08T01:30:36;94597.34;;;5.52;100.00
15050;BME280;7622;42.724;23.250;2024-03-08T01:33:05;94588.91;;;5.39;100.00
15050;BME280;7622;42.724;23.250;2024-03-08T01:35:32;94586.56;;;5.47;100.00
15050;BME280;7622;42.724;23.250;2024-03-08T01:37:59;94588.41;;;5.34;100.00
15050;BME280;7622;42.724;23.250;2024-03-08T01:40:26;94581.97;;;5.39;100.00
15050;BME280;7622;42.724;23.250;2024-03-08T01:42:53;94580.09;;;5.41;100.00
15050;BME280;7622;42.724;23.250;2024-03-08T01:45:19;94578.09;;;5.23;100.00
15050;BME280;7622;42.724;23.250;2024-03-08T01:47:46;94578.97;;;5.57;100.00
15050;BME280;7622;42.724;23.250;2024-03-08T01:50:15;94579.22;;;5.76;100.00
15050;BME280;7622;42.724;23.250;2024-03-08T01:52:42;94565.59;;;5.40;100.00
15050;BME280;7622;42.724;23.250;2024-03-08T01:55:09;94578.28;;;5.66;100.00
15050;BME280;7622;42.724;23.250;2024-03-08T01:57:36;94575.56;;;5.56;100.00
15050;BME280;7622;42.724;23.250;2024-03-08T02:00:04;94577.91;;;5.70;100.00
15050;BME280;7622;42.724;23.250;2024-03-08T02:02:33;94573.47;;;5.72;100.00
15050;BME280;7622;42.724;23.250;2024-03-08T02:05:02;94579.31;;;5.74;100.00
15050;BME280;7622;42.724;23.250;2024-03-08T02:07:32;94577.22;;;5.79;100.00
15050;BME280;7622;42.724;23.250;2024-03-08T02:09:59;94577.09;;;5.70;100.00
15050;BME280;7622;42.724;23.250;2024-03-08T02:12:26;94563.16;;;5.61;100.00
15050;BME280;7622;42.724;23.250;2024-03-08T02:14:54;94577.44;;;5.76;100.00
15050;BME280;7622;42.724;23.250;2024-03-08T02:17:20;94575.25;;;5.72;100.00
15050;BME280;7622;42.724;23.250;2024-03-08T02:19:49;94554.38;;;5.64;100.00
15050;BME280;7622;42.724;23.250;2024-03-08T02:22:21;94278.75;;;3.98;100.00
15050;BME280;7622;42.724;23.250;2024-03-08T02:24:49;94540.69;;;5.52;100.00
15050;BME280;7622;42.724;23.250;2024-03-08T02:27:23;94577.00;;;5.71;100.00
15050;BME280;7622;42.724;23.250;2024-03-08T02:29:50;94578.63;;;5.72;100.00
15050;BME280;7622;42.724;23.250;2024-03-08T02:32:17;94574.53;;;5.59;100.00
15050;BME280;7622;42.724;23.250;2024-03-08T02:34:44;94573.38;;;5.74;100.00
15050;BME280;7622;42.724;23.250;2024-03-08T02:37:11;94580.50;;;5.81;100.00
15050;BME280;7622;42.724;23.250;2024-03-08T02:39:39;94574.16;;;5.74;100.00
15050;BME280;7622;42.724;23.250;2024-03-08T02:42:06;94580.53;;;5.92;100.00
15050;BME280;7622;42.724;23.250;2024-03-08T02:44:33;94581.44;;;5.80;100.00
15050;BME280;7622;42.724;23.250;2024-03-08T02:47:00;94576.03;;;5.83;100.00
15050;BME280;7622;42.724;23.250;2024-03-08T02:49:27;94571.59;;;5.85;100.00
15050;BME280;7622;42.724;23.250;2024-03-08T02:51:53;94582.84;;;5.84;100.00
15050;BME280;7622;42.724;23.250;2024-03-08T02:54:22;94547.59;;;5.51;100.00
15050;BME280;7622;42.724;23.250;2024-03-08T02:56:50;94580.97;;;5.86;100.00
15050;BME280;7622;42.724;23.250;2024-03-08T02:59:17;94587.28;;;5.82;100.00
15050;BME280;7622;42.724;23.250;2024-03-08T03:01:44;94587.19;;;5.73;100.00
15050;BME280;7622;42.724;23.250;2024-03-08T03:04:11;94577.09;;;5.59;100.00
15050;BME280;7622;42.724;23.250;2024-03-08T03:06:37;94592.69;;;5.79;100.00
15050;BME280;7622;42.724;23.250;2024-03-08T03:09:04;94583.56;;;5.86;100.00
15050;BME280;7622;42.724;23.250;2024-03-08T03:11:31;94587.88;;;5.64;100.00
15050;BME280;7622;42.724;23.250;2024-03-08T03:13:59;94589.50;;;5.65;100.00
15050;BME280;7622;42.724;23.250;2024-03-08T03:16:26;94587.03;;;5.52;100.00
15050;BME280;7622;42.724;23.250;2024-03-08T03:18:53;94578.38;;;5.64;100.00
15050;BME280;7622;42.724;23.250;2024-03-08T03:21:21;94559.84;;;5.37;100.00
15050;BME280;7622;42.724;23.250;2024-03-08T03:23:47;94599.09;;;5.51;100.00
15050;BME280;7622;42.724;23.250;2024-03-08T03:26:14;94604.09;;;5.42;100.00
15050;BME280;7622;42.724;23.250;2024-03-08T03:28:42;94595.47;;;5.54;100.00
15050;BME280;7622;42.724;23.250;2024-03-08T03:31:10;94602.50;;;5.52;100.00
15050;BME280;7622;42.724;23.250;2024-03-08T03:33:39;94604.94;;;5.53;100.00
15050;BME280;7622;42.724;23.250;2024-03-08T03:36:06;94606.47;;;5.56;100.00
15050;BME280;7622;42.724;23.250;2024-03-08T03:38:34;94615.78;;;5.35;100.00
15050;BME280;7622;42.724;23.250;2024-03-08T03:41:00;94532.88;;;5.07;100.00
15050;BME280;7622;42.724;23.250;2024-03-08T03:43:35;94618.16;;;5.49;100.00
15050;BME280;7622;42.724;23.250;2024-03-08T03:46:05;94616.88;;;5.32;100.00
15050;BME280;7622;42.724;23.250;2024-03-08T03:48:33;94629.19;;;5.51;100.00
15050;BME280;7622;42.724;23.250;2024-03-08T03:51:00;94627.34;;;5.75;100.00
15050;BME280;7622;42.724;23.250;2024-03-08T03:53:26;94624.97;;;5.61;100.00
15050;BME280;7622;42.724;23.250;2024-03-08T03:55:53;94623.34;;;5.60;100.00
15050;BME280;7622;42.724;23.250;2024-03-08T03:58:20;94603.91;;;5.45;100.00
15050;BME280;7622;42.724;23.250;2024-03-08T04:00:48;94633.38;;;5.41;100.00
15050;BME280;7622;42.724;23.250;2024-03-08T04:03:15;94628.91;;;5.32;100.00
15050;BME280;7622;42.724;23.250;2024-03-08T04:05:43;94625.09;;;5.13;100.00
15050;BME280;7622;42.724;23.250;2024-03-08T04:08:10;94609.13;;;4.97;100.00
15050;BME280;7622;42.724;23.250;2024-03-08T04:10:37;94603.72;;;4.89;100.00
15050;BME280;7622;42.724;23.250;2024-03-08T04:13:03;94613.28;;;4.87;100.00
15050;BME280;7622;42.724;23.250;2024-03-08T04:15:30;94636.06;;;5.04;100.00
15050;BME280;7622;42.724;23.250;2024-03-08T04:17:57;94638.13;;;4.99;100.00
15050;BME280;7622;42.724;23.250;2024-03-08T04:20:25;94640.94;;;4.96;100.00
15050;BME280;7622;42.724;23.250;2024-03-08T04:22:53;94643.00;;;4.91;100.00
15050;BME280;7622;42.724;23.250;2024-03-08T04:25:20;94636.66;;;5.08;100.00
15050;BME280;7622;42.724;23.250;2024-03-08T04:27:47;94639.06;;;5.22;100.00
15050;BME280;7622;42.724;23.250;2024-03-08T04:30:14;94650.63;;;5.17;100.00
15050;BME280;7622;42.724;23.250;2024-03-08T04:32:41;94656.69;;;5.15;100.00
15050;BME280;7622;42.724;23.250;2024-03-08T04:35:08;94660.75;;;5.07;100.00
15050;BME280;7622;42.724;23.250;2024-03-08T04:37:35;94658.28;;;5.05;100.00
15050;BME280;7622;42.724;23.250;2024-03-08T04:40:04;94656.69;;;5.15;100.00
15050;BME280;7622;42.724;23.250;2024-03-08T04:42:31;94670.78;;;5.23;100.00
15050;BME280;7622;42.724;23.250;2024-03-08T04:44:58;94658.72;;;5.23;100.00
15050;BME280;7622;42.724;23.250;2024-03-08T04:47:25;94659.06;;;5.19;100.00
15050;BME280;7622;42.724;23.250;2024-03-08T04:49:52;94671.84;;;4.96;100.00
15050;BME280;7622;42.724;23.250;2024-03-08T04:52:19;94669.56;;;5.15;100.00
15050;BME280;7622;42.724;23.250;2024-03-08T04:54:47;94655.47;;;4.97;100.00
15050;BME280;7622;42.724;23.250;2024-03-08T04:57:15;94671.44;;;5.13;100.00
15050;BME280;7622;42.724;23.250;2024-03-08T04:59:43;94667.16;;;5.01;100.00
15050;BME280;7622;42.724;23.250;2024-03-08T05:02:10;94661.84;;;4.92;100.00
15050;BME280;7622;42.724;23.250;2024-03-08T05:04:36;94680.19;;;4.87;100.00
15050;BME280;7622;42.724;23.250;2024-03-08T05:07:03;94597.47;;;4.33;100.00
15050;BME280;7622;42.724;23.250;2024-03-08T05:09:30;94673.63;;;4.83;100.00
15050;BME280;7622;42.724;23.250;2024-03-08T05:11:58;94678.66;;;4.85;100.00
15050;BME280;7622;42.724;23.250;2024-03-08T05:14:26;94679.03;;;4.91;100.00
15050;BME280;7622;42.724;23.250;2024-03-08T05:16:53;94689.03;;;4.96;100.00
15050;BME280;7622;42.724;23.250;2024-03-08T05:19:20;94690.78;;;4.95;100.00
15050;BME280;7622;42.724;23.250;2024-03-08T05:21:48;94697.22;;;4.77;100.00
15050;BME280;7622;42.724;23.250;2024-03-08T05:24:15;94705.34;;;4.71;100.00
15050;BME280;7622;42.724;23.250;2024-03-08T05:26:42;94702.63;;;4.85;100.00
15050;BME280;7622;42.724;23.250;2024-03-08T05:29:08;94624.19;;;4.30;100.00
15050;BME280;7622;42.724;23.250;2024-03-08T05:31:43;94708.22;;;4.79;100.00
15050;BME280;7622;42.724;23.250;2024-03-08T05:34:12;94709.06;;;4.67;100.00
15050;BME280;7622;42.724;23.250;2024-03-08T05:36:39;94693.94;;;4.75;100.00
15050;BME280;7622;42.724;23.250;2024-03-08T05:39:06;94720.78;;;4.84;100.00
15050;BME280;7622;42.724;23.250;2024-03-08T05:41:33;94724.66;;;5.13;100.00
15050;BME280;7622;42.724;23.250;2024-03-08T05:44:00;94729.72;;;5.14;100.00
15050;BME280;7622;42.724;23.250;2024-03-08T05:46:26;94728.97;;;5.25;100.00
15050;BME280;7622;42.724;23.250;2024-03-08T05:48:54;94653.78;;;4.49;100.00
15050;BME280;7622;42.724;23.250;2024-03-08T05:51:23;94723.19;;;4.98;100.00
15050;BME280;7622;42.724;23.250;2024-03-08T05:53:51;94745.84;;;4.93;100.00
15050;BME280;7622;42.724;23.250;2024-03-08T05:56:18;94735.16;;;4.86;100.00
15050;BME280;7622;42.724;23.250;2024-03-08T05:58:45;94747.16;;;4.98;100.00
15050;BME280;7622;42.724;23.250;2024-03-08T06:01:14;94749.25;;;4.93;100.00
15050;BME280;7622;42.724;23.250;2024-03-08T06:03:41;94752.09;;;5.01;100.00
15050;BME280;7622;42.724;23.250;2024-03-08T06:06:12;94756.72;;;5.09;100.00
15050;BME280;7622;42.724;23.250;2024-03-08T06:08:38;94746.47;;;4.96;100.00
15050;BME280;7622;42.724;23.250;2024-03-08T06:11:05;94689.31;;;4.67;100.00
15050;BME280;7622;42.724;23.250;2024-03-08T06:13:32;94760.56;;;5.27;100.00
15050;BME280;7622;42.724;23.250;2024-03-08T06:15:59;94757.81;;;5.18;100.00
15050;BME280;7622;42.724;23.250;2024-03-08T06:18:26;94754.88;;;5.11;100.00
15050;BME280;7622;42.724;23.250;2024-03-08T06:20:53;94762.91;;;5.06;100.00
15050;BME280;7622;42.724;23.250;2024-03-08T06:23:21;94747.72;;;5.14;100.00
15050;BME280;7622;42.724;23.250;2024-03-08T06:25:47;94763.34;;;5.48;100.00
15050;BME280;7622;42.724;23.250;2024-03-08T06:28:14;94766.59;;;5.39;100.00
15050;BME280;7622;42.724;23.250;2024-03-08T06:30:42;94767.53;;;5.38;100.00
15050;BME280;7622;42.724;23.250;2024-03-08T06:33:08;94776.28;;;5.59;100.00
15050;BME280;7622;42.724;23.250;2024-03-08T06:35:37;94771.50;;;5.66;100.00
15050;BME280;7622;42.724;23.250;2024-03-08T06:38:06;94771.84;;;5.37;100.00
15050;BME280;7622;42.724;23.250;2024-03-08T06:40:36;94774.09;;;5.42;100.00
15050;BME280;7622;42.724;23.250;2024-03-08T06:43:02;94769.06;;;5.75;100.00
15050;BME280;7622;42.724;23.250;2024-03-08T06:45:31;94773.03;;;5.92;100.00
15050;BME280;7622;42.724;23.250;2024-03-08T06:47:57;94765.66;;;5.87;100.00
15050;BME280;7622;42.724;23.250;2024-03-08T06:50:24;94776.16;;;5.84;100.00
15050;BME280;7622;42.724;23.250;2024-03-08T06:52:51;94783.16;;;5.82;100.00
15050;BME280;7622;42.724;23.250;2024-03-08T06:55:19;94778.91;;;5.70;100.00
15050;BME280;7622;42.724;23.250;2024-03-08T06:57:47;94787.34;;;5.72;100.00
15050;BME280;7622;42.724;23.250;2024-03-08T07:00:14;94784.88;;;5.71;100.00
15050;BME280;7622;42.724;23.250;2024-03-08T07:02:44;94781.03;;;5.76;100.00
15050;BME280;7622;42.724;23.250;2024-03-08T07:05:11;94782.72;;;6.12;100.00
15050;BME280;7622;42.724;23.250;2024-03-08T07:07:38;94786.47;;;6.08;100.00
15050;BME280;7622;42.724;23.250;2024-03-08T07:10:07;94786.13;;;6.24;100.00
15050;BME280;7622;42.724;23.250;2024-03-08T07:12:36;94791.63;;;6.30;100.00
15050;BME280;7622;42.724;23.250;2024-03-08T07:15:05;94788.59;;;6.25;100.00
15050;BME280;7622;42.724;23.250;2024-03-08T07:17:32;94786.09;;;6.13;100.00
15050;BME280;7622;42.724;23.250;2024-03-08T07:20:00;94796.31;;;6.25;100.00
15050;BME280;7622;42.724;23.250;2024-03-08T07:22:33;94796.19;;;6.16;100.00
15050;BME280;7622;42.724;23.250;2024-03-08T07:24:59;94790.91;;;6.17;100.00
15050;BME280;7622;42.724;23.250;2024-03-08T07:27:45;94778.31;;;5.90;100.00
15050;BME280;7622;42.724;23.250;2024-03-08T07:30:13;94804.63;;;6.07;100.00
15050;BME280;7622;42.724;23.250;2024-03-08T07:33:01;94718.28;;;5.53;100.00
15050;BME280;7622;42.724;23.250;2024-03-08T07:35:28;94801.28;;;5.93;100.00
15050;BME280;7622;42.724;23.250;2024-03-08T07:37:56;94805.09;;;6.12;100.00
15050;BME280;7622;42.724;23.250;2024-03-08T07:40:25;94803.03;;;6.28;100.00
15050;BME280;7622;42.724;23.250;2024-03-08T07:42:52;94806.09;;;5.98;100.00
15050;BME280;7622;42.724;23.250;2024-03-08T07:45:20;94803.91;;;6.05;100.00
15050;BME280;7622;42.724;23.250;2024-03-08T07:47:47;94804.25;;;6.11;100.00
15050;BME280;7622;42.724;23.250;2024-03-08T07:50:14;94805.72;;;6.38;100.00
15050;BME280;7622;42.724;23.250;2024-03-08T07:52:41;94808.13;;;6.63;100.00
15050;BME280;7622;42.724;23.250;2024-03-08T07:55:09;94803.91;;;6.62;100.00
15050;BME280;7622;42.724;23.250;2024-03-08T07:57:36;94798.41;;;6.78;100.00
15050;BME280;7622;42.724;23.250;2024-03-08T08:00:05;94796.63;;;6.89;100.00
15050;BME280;7622;42.724;23.250;2024-03-08T08:02:35;94787.44;;;7.07;100.00
15050;BME280;7622;42.724;23.250;2024-03-08T08:05:02;94794.78;;;7.34;100.00
15050;BME280;7622;42.724;23.250;2024-03-08T08:07:29;94801.88;;;7.32;100.00
15050;BME280;7622;42.724;23.250;2024-03-08T08:09:56;94800.69;;;7.14;100.00
15050;BME280;7622;42.724;23.250;2024-03-08T08:12:22;94801.47;;;7.48;100.00
15050;BME280;7622;42.724;23.250;2024-03-08T08:14:49;94802.44;;;7.79;100.00
15050;BME280;7622;42.724;23.250;2024-03-08T08:17:15;94796.00;;;7.73;100.00
15050;BME280;7622;42.724;23.250;2024-03-08T08:19:43;94801.25;;;8.04;100.00
15050;BME280;7622;42.724;23.250;2024-03-08T08:22:10;94800.44;;;8.03;100.00
15050;BME280;7622;42.724;23.250;2024-03-08T08:24:37;94792.81;;;7.70;100.00
15050;BME280;7622;42.724;23.250;2024-03-08T08:27:04;94794.97;;;7.65;100.00
15050;BME280;7622;42.724;23.250;2024-03-08T08:29:31;94801.03;;;8.07;100.00
15050;BME280;7622;42.724;23.250;2024-03-08T08:31:58;94790.78;;;7.84;100.00
15050;BME280;7622;42.724;23.250;2024-03-08T08:34:25;94785.03;;;7.81;100.00
15050;BME280;7622;42.724;23.250;2024-03-08T08:36:53;94806.75;;;8.10;100.00
15050;BME280;7622;42.724;23.250;2024-03-08T08:39:21;94795.28;;;8.24;100.00
15050;BME280;7622;42.724;23.250;2024-03-08T08:41:48;94793.63;;;8.34;100.00
15050;BME280;7622;42.724;23.250;2024-03-08T08:44:15;94789.38;;;8.54;100.00
15050;BME280;7622;42.724;23.250;2024-03-08T08:46:42;94788.00;;;8.50;100.00
15050;BME280;7622;42.724;23.250;2024-03-08T08:49:08;94788.38;;;8.45;100.00
15050;BME280;7622;42.724;23.250;2024-03-08T08:51:36;94792.00;;;8.84;100.00
15050;BME280;7622;42.724;23.250;2024-03-08T08:54:04;94794.97;;;9.20;100.00
15050;BME280;7622;42.724;23.250;2024-03-08T08:56:31;94795.47;;;9.44;100.00
15050;BME280;7622;42.724;23.250;2024-03-08T08:58:58;94794.41;;;9.66;100.00
15050;BME280;7622;42.724;23.250;2024-03-08T09:01:25;94791.91;;;9.55;100.00
15050;BME280;7622;42.724;23.250;2024-03-08T09:03:52;94796.56;;;9.51;100.00
15050;BME280;7622;42.724;23.250;2024-03-08T09:06:19;94787.44;;;9.76;100.00
15050;BME280;7622;42.724;23.250;2024-03-08T09:08:46;94766.13;;;10.11;100.00
15050;BME280;7622;42.724;23.250;2024-03-08T09:11:15;94796.78;;;10.83;100.00
15050;BME280;7622;42.724;23.250;2024-03-08T09:13:44;94795.16;;;10.72;100.00
15050;BME280;7622;42.724;23.250;2024-03-08T09:16:11;94786.88;;;10.59;100.00
15050;BME280;7622;42.724;23.250;2024-03-08T09:18:38;94792.00;;;10.22;100.00
15050;BME280;7622;42.724;23.250;2024-03-08T09:21:04;94785.25;;;10.10;100.00
15050;BME280;7622;42.724;23.250;2024-03-08T09:23:35;94779.53;;;9.68;100.00
15050;BME280;7622;42.724;23.250;2024-03-08T09:26:01;94783.38;;;10.31;100.00
15050;BME280;7622;42.724;23.250;2024-03-08T09:28:30;94790.41;;;10.68;93.21
15050;BME280;7622;42.724;23.250;2024-03-08T09:30:57;94788.94;;;11.02;72.80
15050;BME280;7622;42.724;23.250;2024-03-08T09:33:24;94801.19;;;11.47;71.80
15050;BME280;7622;42.724;23.250;2024-03-08T09:35:52;94804.84;;;11.26;73.86
15050;BME280;7622;42.724;23.250;2024-03-08T09:38:19;94797.75;;;11.19;76.57
15050;BME280;7622;42.724;23.250;2024-03-08T09:40:46;94800.97;;;11.58;76.49
15050;BME280;7622;42.724;23.250;2024-03-08T09:43:13;94798.16;;;11.96;74.96
15050;BME280;7622;42.724;23.250;2024-03-08T09:45:42;94792.78;;;12.59;68.33
15050;BME280;7622;42.724;23.250;2024-03-08T09:48:10;94796.81;;;12.28;68.78
15050;BME280;7622;42.724;23.250;2024-03-08T09:50:37;94789.41;;;12.41;70.13
15050;BME280;7622;42.724;23.250;2024-03-08T09:53:04;94796.00;;;12.09;74.23
15050;BME280;7622;42.724;23.250;2024-03-08T09:55:34;94803.00;;;12.09;71.94
15050;BME280;7622;42.724;23.250;2024-03-08T09:58:02;94797.50;;;11.67;77.42
15050;BME280;7622;42.724;23.250;2024-03-08T10:01:03;94795.66;;;10.95;82.91
15050;BME280;7622;42.724;23.250;2024-03-08T10:03:31;94788.63;;;10.58;86.76
15050;BME280;7622;42.724;23.250;2024-03-08T10:05:58;94788.75;;;10.66;88.95
15050;BME280;7622;42.724;23.250;2024-03-08T10:08:26;94796.31;;;11.34;80.76
15050;BME280;7622;42.724;23.250;2024-03-08T10:10:52;94791.59;;;11.47;78.06
15050;BME280;7622;42.724;23.250;2024-03-08T10:13:19;94796.06;;;11.27;71.63
15050;BME280;7622;42.724;23.250;2024-03-08T10:15:46;94795.00;;;10.37;83.01
15050;BME280;7622;42.724;23.250;2024-03-08T10:18:14;94793.34;;;10.36;84.09
15050;BME280;7622;42.724;23.250;2024-03-08T10:20:41;94793.81;;;10.78;86.40
15050;BME280;7622;42.724;23.250;2024-03-08T10:23:08;94794.84;;;11.22;79.49
15050;BME280;7622;42.724;23.250;2024-03-08T10:25:36;94761.88;;;10.95;78.13
15050;BME280;7622;42.724;23.250;2024-03-08T10:28:04;94794.00;;;11.31;71.46
15050;BME280;7622;42.724;23.250;2024-03-08T10:30:31;94788.19;;;10.73;77.58
15050;BME280;7622;42.724;23.250;2024-03-08T10:32:58;94789.72;;;10.65;78.17
15050;BME280;7622;42.724;23.250;2024-03-08T10:35:26;94786.28;;;11.12;74.70
15050;BME280;7622;42.724;23.250;2024-03-08T10:37:54;94790.00;;;11.36;70.15
15050;BME280;7622;42.724;23.250;2024-03-08T10:40:26;94769.19;;;11.36;66.85
15050;BME280;7622;42.724;23.250;2024-03-08T10:42:55;94788.41;;;11.53;68.37
15050;BME280;7622;42.724;23.250;2024-03-08T10:45:30;94780.97;;;11.40;66.78
15050;BME280;7622;42.724;23.250;2024-03-08T10:48:08;94785.38;;;11.30;68.55
15050;BME280;7622;42.724;23.250;2024-03-08T10:50:38;94773.47;;;11.00;70.87
15050;BME280;7622;42.724;23.250;2024-03-08T10:53:06;94776.97;;;10.72;74.59
15050;BME280;7622;42.724;23.250;2024-03-08T10:55:33;94775.69;;;10.49;78.61
15050;BME280;7622;42.724;23.250;2024-03-08T10:58:01;94773.22;;;11.21;75.34
15050;BME280;7622;42.724;23.250;2024-03-08T11:00:29;94767.56;;;11.98;69.02
15050;BME280;7622;42.724;23.250;2024-03-08T11:02:57;94760.06;;;12.31;63.90
15050;BME280;7622;42.724;23.250;2024-03-08T11:05:38;94757.84;;;13.29;61.29
15050;BME280;7622;42.724;23.250;2024-03-08T11:08:16;94754.06;;;13.74;58.53
15050;BME280;7622;42.724;23.250;2024-03-08T11:10:48;94743.50;;;14.00;57.80
15050;BME280;7622;42.724;23.250;2024-03-08T11:13:35;94755.09;;;14.86;56.81
15050;BME280;7622;42.724;23.250;2024-03-08T11:16:02;94750.84;;;14.53;55.43
15050;BME280;7622;42.724;23.250;2024-03-08T11:18:32;94741.41;;;14.03;56.99
15050;BME280;7622;42.724;23.250;2024-03-08T11:21:04;94743.22;;;14.43;53.96
15050;BME280;7622;42.724;23.250;2024-03-08T11:23:32;94738.59;;;14.70;55.12
15050;BME280;7622;42.724;23.250;2024-03-08T11:25:59;94746.28;;;15.26;52.88
15050;BME280;7622;42.724;23.250;2024-03-08T11:28:26;94742.84;;;14.54;54.17
15050;BME280;7622;42.724;23.250;2024-03-08T11:31:24;94732.09;;;13.00;57.40
15050;BME280;7622;42.724;23.250;2024-03-08T11:33:52;94725.94;;;12.42;57.98
15050;BME280;7622;42.724;23.250;2024-03-08T11:36:22;94729.25;;;11.73;60.88
15050;BME280;7622;42.724;23.250;2024-03-08T11:38:50;94720.91;;;11.69;60.49
15050;BME280;7622;42.724;23.250;2024-03-08T11:41:20;94723.56;;;11.42;62.16
15050;BME280;7622;42.724;23.250;2024-03-08T11:43:49;94697.97;;;11.02;61.91
15050;BME280;7622;42.724;23.250;2024-03-08T11:46:17;94699.38;;;11.77;60.31
15050;BME280;7622;42.724;23.250;2024-03-08T11:48:44;94726.41;;;12.19;59.32
15050;BME280;7622;42.724;23.250;2024-03-08T11:51:13;94720.16;;;12.30;59.94
15050;BME280;7622;42.724;23.250;2024-03-08T11:53:42;94726.06;;;12.40;62.10
15050;BME280;7622;42.724;23.250;2024-03-08T11:56:09;94719.19;;;12.57;60.76
15050;BME280;7622;42.724;23.250;2024-03-08T11:58:36;94715.31;;;12.35;60.61
15050;BME280;7622;42.724;23.250;2024-03-08T12:01:04;94719.44;;;12.46;60.48
15050;BME280;7622;42.724;23.250;2024-03-08T12:03:32;94708.56;;;12.50;61.63
15050;BME280;7622;42.724;23.250;2024-03-08T12:05:59;94695.13;;;12.37;60.75
15050;BME280;7622;42.724;23.250;2024-03-08T12:08:27;94708.50;;;12.68;59.07
15050;BME280;7622;42.724;23.250;2024-03-08T12:10:56;94715.09;;;12.29;59.02
15050;BME280;7622;42.724;23.250;2024-03-08T12:13:25;94706.53;;;11.75;60.21
15050;BME280;7622;42.724;23.250;2024-03-08T12:15:55;94688.91;;;11.87;59.26
15050;BME280;7622;42.724;23.250;2024-03-08T12:18:24;94708.44;;;12.08;59.68
15050;BME280;7622;42.724;23.250;2024-03-08T12:20:50;94704.81;;;12.01;59.85
15050;BME280;7622;42.724;23.250;2024-03-08T12:23:17;94712.97;;;11.53;61.49
15050;BME280;7622;42.724;23.250;2024-03-08T12:25:44;94696.59;;;11.43;62.78
15050;BME280;7622;42.724;23.250;2024-03-08T12:28:13;94670.88;;;11.04;65.90
15050;BME280;7622;42.724;23.250;2024-03-08T12:30:46;94708.16;;;11.13;68.46
15050;BME280;7622;42.724;23.250;2024-03-08T12:33:13;94696.91;;;10.95;70.75
15050;BME280;7622;42.724;23.250;2024-03-08T12:35:40;94697.56;;;10.70;72.83
15050;BME280;7622;42.724;23.250;2024-03-08T12:38:07;94694.50;;;10.47;78.53
15050;BME280;7622;42.724;23.250;2024-03-08T12:40:34;94687.56;;;10.38;81.34
15050;BME280;7622;42.724;23.250;2024-03-08T12:43:06;94692.66;;;10.66;75.90
15050;BME280;7622;42.724;23.250;2024-03-08T12:45:34;94694.00;;;10.71;72.86
15050;BME280;7622;42.724;23.250;2024-03-08T12:48:01;94690.00;;;10.39;77.05
15050;BME280;7622;42.724;23.250;2024-03-08T12:50:28;94692.13;;;10.16;78.79
15050;BME280;7622;42.724;23.250;2024-03-08T12:52:55;94694.44;;;10.29;78.23
15050;BME280;7622;42.724;23.250;2024-03-08T12:55:22;94687.59;;;10.28;77.63
15050;BME280;7622;42.724;23.250;2024-03-08T12:57:49;94682.00;;;10.04;80.10
15050;BME280;7622;42.724;23.250;2024-03-08T13:00:18;94685.47;;;9.95;81.72
15050;BME280;7622;42.724;23.250;2024-03-08T13:02:46;94681.34;;;9.92;89.20
15050;BME280;7622;42.724;23.250;2024-03-08T13:05:15;94652.69;;;9.84;83.97